Flight Track Log - Related Links

Times and Time Zones

All times are in EDT time to prevent confusion due to time zone crossing. See the SWA641 flight status page for this flight to view local times or setup timezone preferences in your user account.

Time Position Orientation Groundspeed Altitude Reporting Facility
EDT Latitude Longitude Course Direction KTS MPH feet Rate Location/Type
Thu 06:13:52 AM 38.9333 -77.5333 288° West 196 226 3,500  Level Potomac TRACON
Thu 06:14:46 AM 38.9167 -77.6167 256° West 257 296 5,500 4,017 Climbing Potomac TRACON
Thu 06:15:50 AM 38.9053 -77.7122 261° West 272 313 11,400 4,355 Climbing Washington Center
Thu 06:16:50 AM 38.9178 -77.8142 279° West 282 325 14,500 3,250 Climbing Washington Center
Thu 06:17:50 AM 38.9283 -77.9292 277° West 310 357 17,900 3,400 Climbing Washington Center
Thu 06:18:50 AM 38.9406 -78.0469 278° West 324 373 21,300 3,550 Climbing Washington Center
Thu 06:19:00 AM 38.9183 -78.1063 288° West  Level FlightAware Approximate
Thu 06:19:50 AM 38.9547 -78.1622 279° West 331 381 25,000  Level Washington Center
Thu 06:20:50 AM 38.9625 -78.2800 275° West 336 387 27,000 1,200 Climbing Washington Center
Thu 06:21:50 AM 38.9661 -78.4056 272° West 341 392 27,400 1,200 Climbing Washington Center
Thu 06:22:50 AM 38.9711 -78.5339 273° West 353 406 29,400 2,250 Climbing Washington Center
Thu 06:23:50 AM 38.9742 -78.6622 272° West 364 419 31,900 2,250 Climbing Washington Center
Thu 06:24:50 AM 38.9792 -78.7933 273° West 369 425 33,900 1,750 Climbing Washington Center
Thu 06:25:50 AM 38.9828 -78.8950 273° West 369 425 35,400 1,750 Climbing Washington Center
Thu 06:26:50 AM 38.9867 -79.0500 272° West 369 425 37,400 1,650 Climbing Washington Center
Thu 06:27:50 AM 38.9872 -79.1783 270° West 369 425 38,700 1,300 Climbing Washington Center
Thu 06:28:50 AM 38.9917 -79.3039 273° West 364 419 40,000 650 Climbing Washington Center
Thu 06:29:50 AM 38.9961 -79.4269 273° West 359 413 40,000  Level Washington Center
Thu 06:30:50 AM 39.0044 -79.5531 275° West 354 407 40,000  Level Washington Center
Thu 06:31:50 AM 39.0169 -79.6819 277° West 361 415 40,000  Level Washington Center
Thu 06:33:31 AM 39.0311 -79.8769 275° West 359 413 40,000  Level Indianapolis Center
Thu 06:34:32 AM 39.0411 -80.0011 276° West 359 413 40,000  Level Indianapolis Center
Thu 06:35:33 AM 39.0528 -80.1431 276° West 358 412 40,000  Level Indianapolis Center
Thu 06:36:33 AM 39.0636 -80.2703 276° West 358 412 40,000  Level Indianapolis Center
Thu 06:37:34 AM 39.0758 -80.3972 277° West 358 412 40,000  Level Indianapolis Center
Thu 06:38:35 AM 39.0953 -80.5206 282° West 358 412 40,000  Level Indianapolis Center
Thu 06:39:35 AM 39.1450 -80.6378 299° West 372 428 40,000  Level Indianapolis Center
Thu 06:40:36 AM 39.1956 -80.7550 299° West 373 429 40,000  Level Indianapolis Center
Thu 06:41:37 AM 39.2467 -80.8714 300° West 374 430 40,000  Level Indianapolis Center
Thu 06:42:38 AM 39.2983 -80.9906 299° West 379 436 40,000  Level Indianapolis Center
Thu 06:43:38 AM 39.3494 -81.1083 299° West 380 437 40,000  Level Indianapolis Center
Thu 06:44:39 AM 39.4000 -81.2289 299° West 382 440 40,000  Level Indianapolis Center
Thu 06:45:40 AM 39.4503 -81.3486 299° West 380 437 40,000  Level Indianapolis Center
Thu 06:46:41 AM 39.5008 -81.4672 299° West 378 435 40,000  Level Indianapolis Center
Thu 06:47:41 AM 39.5514 -81.5872 299° West 380 437 40,000  Level Indianapolis Center
Thu 06:48:42 AM 39.6106 -81.7311 298° West 379 436 40,000  Level Indianapolis Center
Thu 06:49:43 AM 39.6617 -81.8508 299° West 380 437 40,000  Level Indianapolis Center
Thu 06:50:44 AM 39.7089 -81.9650 298° West 379 436 40,000  Level Indianapolis Center
Thu 06:51:44 AM 39.7594 -82.0858 299° West 378 435 40,000  Level Indianapolis Center
Thu 06:52:45 AM 39.8094 -82.2092 298° West 381 438 40,000  Level Indianapolis Center
Thu 06:53:46 AM 39.8600 -82.3311 298° West 381 438 40,000  Level Indianapolis Center
Thu 06:54:47 AM 39.9108 -82.4544 298° West 383 441 40,000  Level Indianapolis Center
Thu 06:55:48 AM 39.9606 -82.5794 297° West 385 443 40,000  Level Indianapolis Center
Thu 06:56:49 AM 40.0111 -82.7022 298° West 383 441 40,000  Level Indianapolis Center
Thu 06:57:49 AM 40.0611 -82.8269 298° West 385 443 40,000  Level Indianapolis Center
Thu 06:58:50 AM 40.1119 -82.9500 298° West 384 442 40,000  Level Indianapolis Center
Thu 06:59:51 AM 40.1614 -83.0736 298° West 385 443 40,000  Level Indianapolis Center
Thu 07:00:52 AM 40.2097 -83.1978 297° West 382 440 40,000  Level Indianapolis Center
Thu 07:01:53 AM 40.2600 -83.3206 298° West 383 441 40,000  Level Indianapolis Center
Thu 07:02:54 AM 40.3172 -83.4653 297° West 383 441 40,000  Level Indianapolis Center
Thu 07:03:55 AM 40.3658 -83.5906 297° West 385 443 40,000  Level Indianapolis Center
Thu 07:04:56 AM 40.4161 -83.7175 298° West 389 448 40,000  Level Indianapolis Center
Thu 07:05:57 AM 40.4650 -83.8433 297° West 387 445 40,000 -49 Level Indianapolis Center
Thu 07:06:58 AM 40.5147 -83.9689 298° West 384 442 39,900 -541 Descending Indianapolis Center
Thu 07:07:59 AM 40.5633 -84.0956 297° West 386 444 38,900 -934 Descending Indianapolis Center
Thu 07:09:00 AM 40.6114 -84.2219 297° West 384 442 38,000 -934 Descending Indianapolis Center
Thu 07:10:01 AM 40.6600 -84.3458 297° West 379 436 37,000 -984 Descending Indianapolis Center
Thu 07:11:02 AM 40.7067 -84.4694 297° West 376 433 36,000 -984 Descending Indianapolis Center
Thu 07:12:03 AM 40.7533 -84.5897 297° West 367 422 35,000 -905 Descending Indianapolis Center
Thu 07:13:08 AM 40.7953 -84.6994 297° West 354 407 34,100 -1,048 Descending Chicago Center
Thu 07:14:09 AM 40.8608 -84.8256 305° West 349 402 32,800 -1,131 Descending Chicago Center
Thu 07:15:10 AM 40.9169 -84.9267 306° West 345 397 31,800 -934 Descending Chicago Center
Thu 07:16:11 AM 40.9725 -85.0278 306° West 340 391 30,900 -885 Descending Chicago Center
Thu 07:17:12 AM 41.0308 -85.1306 307° West 347 399 30,000 -1,377 Descending Chicago Center
Thu 07:18:13 AM 41.0914 -85.2378 307° West 358 412 28,100 -1,475 Descending Chicago Center
Thu 07:19:14 AM 41.1500 -85.3425 307° West 355 409 27,000 -1,024 Descending Chicago Center
Thu 07:20:16 AM 41.2067 -85.4469 306° West 350 403 26,000 -976 Descending Chicago Center
Thu 07:21:17 AM 41.2639 -85.5517 306° West 349 402 25,000 -1,033 Descending Chicago Center
Thu 07:22:18 AM 41.3194 -85.6503 307° West 333 383 23,900 -1,033 Descending Chicago Center
Thu 07:23:19 AM 41.3728 -85.7475 306° West 326 375 22,900 -984 Descending Chicago Center
Thu 07:24:20 AM 41.4233 -85.8431 305° West 316 364 21,900 -1,268 Descending Chicago Center
Thu 07:25:22 AM 41.4739 -85.9353 306° West 309 356 20,300 -1,805 Descending Chicago Center
Thu 07:26:23 AM 41.5217 -86.0256 305° West 299 344 18,200 -2,016 Descending Chicago Center
Thu 07:27:24 AM 41.5242 -86.1336 272° West 292 336 16,200 -2,262 Descending Chicago Center
Thu 07:28:25 AM 41.5228 -86.2592 269° West 284 327 13,600 -2,311 Descending Chicago Center
Thu 07:29:26 AM 41.5225 -86.3633 270° West 283 326 11,500 -1,659 Descending Chicago Center
Thu 07:30:28 AM 41.5225 -86.4647 270° West 276 318 10,200 -1,024 Descending Chicago Center
Thu 07:31:29 AM 41.5219 -86.5561 270° West 251 289 9,400 -885 Descending Chicago Center
Thu 07:32:30 AM 41.5214 -86.6447 270° West 239 275 8,400 -976 Descending Chicago Center
Thu 07:33:32 AM 41.5200 -86.7297 269° West 232 267 7,400 -976 Descending Chicago Center
Thu 07:34:33 AM 41.5197 -86.8158 270° West 233 268 6,400 -639 Descending Chicago Center
Thu 07:35:34 AM 41.5208 -86.9017 271° West 233 268 6,100 -146 Descending Chicago Center
Thu 07:36:36 AM 41.5192 -87.0028 269° West 231 266 6,100 -49 Level Chicago Center
Thu 07:37:37 AM 41.5175 -87.0858 268° West 228 262 6,000 -53 Descending Chicago Center
Thu 07:38:29 AM 41.5167 -87.1667 269° West 232 267 6,000 -420 Level Chicago TRACON
Thu 07:39:17 AM 41.5500 -87.2167 312° West 231 266 5,300 -950 Descending Chicago TRACON
Thu 07:40:29 AM 41.5667 -87.3167 283° West 230 265 4,100 -571 Descending Chicago TRACON
Thu 07:41:23 AM 41.5833 -87.4000 285° West 226 260 4,100 -81 Level Chicago TRACON
Thu 07:41:43 AM 41.5939 -87.4047 342° North 228 262 4,000 -148 Descending Chicago Center
Thu 07:42:44 AM 41.6153 -87.4828 290° West 225 259 3,900 -49 Descending Chicago Center
Thu 07:43:46 AM 41.6433 -87.5528 298° West 200 230 3,900 -146 Level Chicago Center
Thu 07:44:47 AM 41.6744 -87.5989 312° West 181 208 3,600 -519 Descending Chicago Center
Thu 07:45:30 AM 41.7000 -87.6333 315° West 152 175 3,000 -804 Descending Chicago TRACON
Thu 07:46:24 AM 41.7167 -87.6667 304° West 137 158 2,300 -684 Descending Chicago TRACON
Thu 07:47:24 AM 41.7500 -87.7000 323° Northwest 128 147 1,700 -667 Descending Chicago TRACON
Thu 07:48:30 AM 41.7667 -87.7333 304° West 117 135 900 -727 Descending Chicago TRACON
Thu 07:50:00 AM 41.7833 -87.7500 340° North  Level FlightAware Approximate

Login

Don't have an account? Register now (free) for customized features, flight alerts, and more!